Terry, MT

11:46 PM MDT on July 31, 2014 (GMT -0600)
Dawson Community (KGDV) Elev 2457 ft | 47.14 °N, 104.81 °W | Change Station

Current weather conditions updated 11 minutes ago

Clear
Clear
72 °F
Feels Like 72 °F
N
8
Wind Variable Wind from SW

Tomorrow is forecast to be nearly the same temperature as today.

Today
High -- | Low -- °F
--% Chance of Precip.
Yesterday
High -- | Low -- °F
Precip. -- in
5:40 AM 8:34 PM
Waxing Crescent, 24% visible
Pressure 30.03 in
Visibility 10.0 miles
Clouds Clear
Dew Point 46 °F
Humidity 41%
Rainfall 0.00 in
Snow Depth Not available.
UV 0 out of 12
Pollen 7.20 out of 12
Air Quality Not available.
Flu Activity Not available.
METAR KGDV 010535Z AUTO 22007KT 10SM CLR 22/08 A3003 RMK AO1

More Conditions Fewer Conditions

Pressure 30.03 in
Visibility 10.0 miles
Clouds Clear
Dew Point 46 °F
Humidity 41%
Rainfall 0.00 in
Snow Depth Not available.
UV 0 out of 12
Pollen 7.20 out of 12
Air Quality Not available.
Flu Activity Not available.
METAR KGDV 010535Z AUTO 22007KT 10SM CLR 22/08 A3003 RMK AO1

More Conditions Fewer Conditions

10-Day Weather Forecast

Almanac

Astronomy

Jul. 31, 2014 Rise Set
Actual Time 5:40 AM MDT 8:34 PM MDT
Civil Twilight 5:04 AM MDT 9:09 PM MDT
Nautical Twilight 4:19 AM MDT 9:54 PM MDT
Astronomical Twilight 3:24 AM MDT 10:48 PM MDT
Moon 10:30 AM MDT (7/31) 10:26 PM MDT (7/31)
Length of Visible Light 16h 04m
Length of Day
14h 54m
Tomorrow will be 2m 34s shorter.
Waxing Crescent, 24% of the Moon is Illuminated
Aug 1
Waxing Crescent
Aug 3
First Quarter
Aug 10
Full
Aug 17
Last Quarter
Aug 25
New

Yesterday's Extremes

State Highs State Lows

Community

WunderPhotos

Upload Photos

1,739,520 photos uploaded!

Nearby

Snow Depth

Station Depth Elevation
Crystal Lake 0 in 6050 ft
Cole Creek 0 in 7850 ft
Porcupine 1 in 6500 ft
Spur Park 0 in 8100 ft
White Mill 2 in 8700 ft

Earthquake Activity

City Distance Mag. Time & Date
No recent earthquake activity has been reported nearby.
Minimum magnitude displayed is 2.5.

Coastal Water Temperatures

Place Temperature
No Stations Reporting

Nearby Weather Stations

Station Location Temp. Heat Index Dew Point Humidity Wind Precip. Elev Updated Type
APRSWXNET Fallon MT U, Terry, MT 78 °F 76 °F - - North  at  0 mph 0.00 in / hr 2799 ft 8:46 PM MDT MADIS

Show More Stations Show Fewer Stations